createdAt,value
2018-02-23T00:00:49.098Z,-1.00
2018-02-23T00:03:16.561Z,-1.10
2018-02-23T00:05:44.061Z,-1.00
2018-02-23T00:08:12.302Z,-1.00
2018-02-23T00:10:39.799Z,-1.10
2018-02-23T00:13:08.039Z,-1.20
2018-02-23T00:15:35.507Z,-1.20
2018-02-23T00:18:02.990Z,-1.20
2018-02-23T00:20:31.227Z,-1.30
2018-02-23T00:22:58.694Z,-1.30
2018-02-23T00:25:26.218Z,-1.50
2018-02-23T00:27:53.678Z,-1.70
2018-02-23T00:30:21.138Z,-1.80
2018-02-23T00:32:48.680Z,-1.90
2018-02-23T00:35:16.193Z,-2.10
2018-02-23T00:37:43.669Z,-2.10
2018-02-23T00:40:11.902Z,-2.30
2018-02-23T00:42:39.378Z,-2.30
2018-02-23T00:45:06.863Z,-2.40
2018-02-23T00:47:34.352Z,-2.50
2018-02-23T00:50:01.839Z,-2.40
2018-02-23T00:52:29.315Z,-2.30
2018-02-23T00:54:57.550Z,-2.00
2018-02-23T00:57:25.026Z,-2.10
2018-02-23T00:59:52.505Z,-1.90
2018-02-23T01:02:20.743Z,-1.90
2018-02-23T01:04:48.222Z,-1.90
2018-02-23T01:07:15.714Z,-1.90
2018-02-23T01:09:43.187Z,-1.90
2018-02-23T01:12:10.670Z,-1.90
2018-02-23T01:14:38.167Z,-1.90
2018-02-23T01:17:07.042Z,-1.90
2018-02-23T01:19:34.519Z,-1.90
2018-02-23T01:22:02.747Z,-1.80
2018-02-23T01:24:30.243Z,-1.80
2018-02-23T01:26:58.490Z,-1.70
2018-02-23T01:29:25.976Z,-1.70
2018-02-23T01:31:54.221Z,-1.70
2018-02-23T01:34:21.682Z,-1.70
2018-02-23T01:36:49.196Z,-1.70
2018-02-23T01:39:16.650Z,-1.80
2018-02-23T01:41:44.115Z,-1.80
2018-02-23T01:44:11.603Z,-1.80
2018-02-23T01:46:39.067Z,-1.80
2018-02-23T01:49:06.542Z,-1.90
2018-02-23T01:51:34.034Z,-1.90
2018-02-23T01:54:01.519Z,-2.00
2018-02-23T01:56:28.986Z,-2.00
2018-02-23T01:58:56.470Z,-2.00
2018-02-23T02:01:24.720Z,-2.00
2018-02-23T02:03:52.198Z,-2.00
2018-02-23T02:06:20.446Z,-1.90
2018-02-23T02:08:47.912Z,-1.90
2018-02-23T02:11:15.400Z,-1.90
2018-02-23T02:13:43.635Z,-1.80
2018-02-23T02:16:11.102Z,-1.80
2018-02-23T02:18:38.615Z,-1.80
2018-02-23T02:21:06.079Z,-1.90
2018-02-23T02:23:33.546Z,-1.90
2018-02-23T02:26:01.035Z,-1.90
2018-02-23T02:28:29.270Z,-1.80
2018-02-23T02:30:56.744Z,-1.80
2018-02-23T02:33:24.255Z,-1.70
2018-02-23T02:35:51.746Z,-1.70
2018-02-23T02:38:19.203Z,-1.60
2018-02-23T02:40:46.695Z,-1.60
2018-02-23T02:43:14.158Z,-1.50
2018-02-23T02:45:42.386Z,-1.50
2018-02-23T02:48:09.934Z,-1.50
2018-02-23T02:50:37.500Z,-1.60
2018-02-23T02:53:04.966Z,-1.50
2018-02-23T02:55:32.471Z,-1.50
2018-02-23T02:58:00.704Z,-1.50
2018-02-23T03:00:28.175Z,-1.60
2018-02-23T03:02:55.659Z,-1.60
2018-02-23T03:05:23.895Z,-1.60
2018-02-23T03:07:51.363Z,-1.70
2018-02-23T03:10:18.856Z,-1.60
2018-02-23T03:12:47.086Z,-1.60
2018-02-23T03:15:14.557Z,-1.60
2018-02-23T03:17:42.046Z,-1.60
2018-02-23T03:20:10.344Z,-1.60
2018-02-23T03:22:37.798Z,-1.60
2018-02-23T03:25:05.287Z,-1.60
2018-02-23T03:27:32.755Z,-1.60
2018-02-23T03:30:00.244Z,-1.60
2018-02-23T03:32:28.475Z,-1.60
2018-02-23T03:34:55.939Z,-1.70
2018-02-23T03:37:23.430Z,-1.70
2018-02-23T03:39:51.682Z,-1.70
2018-02-23T03:42:19.146Z,-1.70
2018-02-23T03:44:47.375Z,-1.70
2018-02-23T03:47:14.875Z,-1.70
2018-02-23T03:49:42.377Z,-1.70
2018-02-23T03:52:09.937Z,-1.80
2018-02-23T03:54:37.423Z,-1.80
2018-02-23T03:57:04.955Z,-1.80
2018-02-23T03:59:32.414Z,-1.80
2018-02-23T04:01:59.895Z,-1.80
2018-02-23T04:04:27.370Z,-1.90
2018-02-23T04:06:54.832Z,-1.80
2018-02-23T04:09:22.311Z,-1.90
2018-02-23T04:11:49.773Z,-2.00
2018-02-23T04:14:17.254Z,-1.90
2018-02-23T04:16:44.738Z,-1.90
2018-02-23T04:19:12.202Z,-1.80
2018-02-23T04:21:39.674Z,-1.80
2018-02-23T04:24:07.157Z,-1.80
2018-02-23T04:26:34.634Z,-1.80
2018-02-23T04:29:02.099Z,-1.80
2018-02-23T04:31:29.575Z,-1.80
2018-02-23T04:33:57.039Z,-1.90
2018-02-23T04:36:24.511Z,-1.90
2018-02-23T04:38:52.003Z,-1.90
2018-02-23T04:41:19.573Z,-1.90
2018-02-23T04:43:47.033Z,-1.80
2018-02-23T04:46:14.535Z,-1.90
2018-02-23T04:48:41.998Z,-1.90
2018-02-23T04:51:09.471Z,-1.90
2018-02-23T04:53:37.716Z,-2.00
2018-02-23T04:56:05.186Z,-2.00
2018-02-23T04:58:32.679Z,-2.00
2018-02-23T05:01:00.151Z,-2.10
2018-02-23T05:03:27.610Z,-2.10
2018-02-23T05:05:55.091Z,-2.10
2018-02-23T05:08:22.559Z,-2.10
2018-02-23T05:10:50.037Z,-2.20
2018-02-23T05:13:18.285Z,-2.30
2018-02-23T05:15:45.756Z,-2.30
2018-02-23T05:18:13.218Z,-2.30
2018-02-23T05:20:41.469Z,-2.40
2018-02-23T05:23:08.935Z,-2.40
2018-02-23T05:25:36.406Z,-2.40
2018-02-23T05:28:04.654Z,-2.40
2018-02-23T05:30:32.122Z,-2.50
2018-02-23T05:32:59.603Z,-2.50
2018-02-23T05:35:27.866Z,-2.70
2018-02-23T05:37:56.104Z,-2.70
2018-02-23T05:40:23.563Z,-2.70
2018-02-23T05:42:51.085Z,-2.70
2018-02-23T05:45:18.656Z,-2.70
2018-02-23T05:47:46.170Z,-2.70
2018-02-23T05:50:14.491Z,-2.70
2018-02-23T05:52:43.854Z,-2.70
2018-02-23T05:55:12.091Z,-2.70
2018-02-23T05:57:39.587Z,-2.70
2018-02-23T06:00:07.822Z,-2.70
2018-02-23T06:02:35.290Z,-2.70
2018-02-23T06:05:02.790Z,-2.70
2018-02-23T06:07:31.019Z,-2.60
2018-02-23T06:09:58.504Z,-2.60
2018-02-23T06:12:25.975Z,-2.60
2018-02-23T06:14:54.210Z,-2.50
2018-02-23T06:17:28.097Z,-2.40
2018-02-23T06:20:01.295Z,-2.40
2018-02-23T06:22:28.828Z,-2.40
2018-02-23T06:24:56.287Z,-2.30
2018-02-23T06:27:23.747Z,-2.30
2018-02-23T06:29:51.250Z,-2.30
2018-02-23T06:32:20.239Z,-2.40
2018-02-23T06:34:47.703Z,-2.40
2018-02-23T06:37:15.182Z,-2.40
2018-02-23T06:39:42.664Z,-2.30
2018-02-23T06:42:10.218Z,-2.40
2018-02-23T06:44:37.699Z,-2.30
2018-02-23T06:47:10.971Z,-2.30
2018-02-23T06:49:38.480Z,-2.10
2018-02-23T06:52:06.085Z,-1.70
2018-02-23T06:54:33.546Z,-1.40
2018-02-23T06:57:01.042Z,-1.30
2018-02-23T06:59:28.502Z,-1.20
2018-02-23T07:01:55.994Z,-1.30
2018-02-23T07:04:23.455Z,-1.40
2018-02-23T07:06:50.936Z,-1.40
2018-02-23T07:09:18.419Z,-1.30
2018-02-23T07:11:45.879Z,-1.10
2018-02-23T07:14:13.359Z,-0.70
2018-02-23T07:16:41.673Z,0.20
2018-02-23T07:19:09.127Z,0.20
2018-02-23T07:21:36.604Z,0.60
2018-02-23T07:24:04.074Z,0.70
2018-02-23T07:26:31.531Z,0.90
2018-02-23T07:28:59.031Z,1.20
2018-02-23T07:31:27.254Z,1.60
2018-02-23T07:33:54.722Z,1.60
2018-02-23T07:36:22.220Z,1.70
2018-02-23T07:38:49.697Z,1.90
2018-02-23T07:41:17.174Z,1.90
2018-02-23T07:43:44.666Z,2.00
2018-02-23T07:46:12.898Z,2.40
2018-02-23T07:48:40.355Z,2.40
2018-02-23T07:51:07.843Z,2.80
2018-02-23T07:53:35.304Z,3.10
2018-02-23T07:56:02.871Z,3.00
2018-02-23T07:58:30.342Z,2.70
2018-02-23T08:00:58.591Z,2.40
2018-02-23T08:03:26.173Z,2.40
2018-02-23T08:05:54.406Z,1.90
2018-02-23T08:08:21.901Z,1.90
2018-02-23T08:10:50.158Z,1.50
2018-02-23T08:13:17.658Z,1.50
2018-02-23T08:15:45.127Z,1.90
2018-02-23T08:18:12.611Z,1.90
2018-02-23T08:20:40.094Z,2.00
2018-02-23T08:23:07.562Z,2.30
2018-02-23T08:25:35.822Z,2.30
2018-02-23T08:28:03.287Z,2.30
2018-02-23T08:30:31.527Z,2.60
2018-02-23T08:32:59.058Z,2.60
2018-02-23T08:35:26.513Z,2.70
2018-02-23T08:37:53.978Z,3.10
2018-02-23T08:40:21.455Z,3.80
2018-02-23T08:42:48.928Z,4.20
2018-02-23T08:45:16.380Z,4.30
2018-02-23T08:47:43.882Z,3.90
2018-02-23T08:50:11.339Z,4.10
2018-02-23T08:52:38.815Z,4.40
2018-02-23T08:55:06.290Z,5.10
2018-02-23T08:57:33.759Z,4.90
2018-02-23T09:00:01.219Z,4.10
2018-02-23T09:02:29.466Z,4.00
2018-02-23T09:04:56.934Z,4.00
2018-02-23T09:07:24.402Z,4.00
2018-02-23T09:09:51.887Z,3.30
2018-02-23T09:12:20.119Z,2.30
2018-02-23T09:14:47.588Z,2.30
2018-02-23T09:17:15.099Z,3.00
2018-02-23T09:19:42.576Z,3.00
2018-02-23T09:22:10.045Z,2.30
2018-02-23T09:24:37.596Z,1.90
2018-02-23T09:27:05.778Z,2.50
2018-02-23T09:29:33.246Z,2.50
2018-02-23T09:32:00.730Z,2.70
2018-02-23T09:34:37.908Z,2.90
2018-02-23T09:37:06.172Z,3.60
2018-02-23T09:39:33.623Z,3.50
2018-02-23T09:42:01.147Z,3.90
2018-02-23T09:44:28.608Z,4.40
2018-02-23T09:46:56.159Z,4.60
2018-02-23T09:49:23.631Z,4.40
2018-02-23T09:51:51.096Z,5.60
2018-02-23T09:54:19.571Z,6.10
2018-02-23T09:56:47.110Z,6.20
2018-02-23T09:59:14.567Z,5.90
2018-02-23T10:01:42.054Z,5.90
2018-02-23T10:04:09.514Z,5.50
2018-02-23T10:06:36.994Z,5.50
2018-02-23T10:09:05.217Z,5.90
2018-02-23T10:11:32.695Z,5.80
2018-02-23T10:14:00.190Z,6.10
2018-02-23T10:16:28.440Z,7.30
2018-02-23T10:18:55.925Z,7.20
2018-02-23T10:21:24.168Z,7.10
2018-02-23T10:23:51.626Z,7.00
2018-02-23T10:26:19.090Z,7.20
2018-02-23T10:28:46.596Z,7.10
2018-02-23T10:31:14.042Z,7.20
2018-02-23T10:33:41.498Z,7.30
2018-02-23T10:36:08.974Z,7.20
2018-02-23T10:38:36.431Z,7.80
2018-02-23T10:41:03.885Z,7.60
2018-02-23T10:43:31.371Z,8.20
2018-02-23T10:45:58.835Z,8.60
2018-02-23T10:48:26.286Z,8.20
2018-02-23T10:50:53.768Z,8.80
2018-02-23T10:53:21.224Z,8.60
2018-02-23T10:55:48.694Z,8.40
2018-02-23T10:58:16.919Z,8.50
2018-02-23T11:00:44.391Z,8.50
2018-02-23T11:03:11.882Z,8.70
2018-02-23T11:05:40.102Z,7.70
2018-02-23T11:08:07.571Z,7.70
2018-02-23T11:10:35.058Z,6.90
2018-02-23T11:13:03.297Z,7.90
2018-02-23T11:15:30.771Z,7.90
2018-02-23T11:17:58.250Z,8.20
2018-02-23T11:20:26.479Z,8.40
2018-02-23T11:22:53.948Z,8.40
2018-02-23T11:25:21.427Z,8.80
2018-02-23T11:27:48.891Z,8.80
2018-02-23T11:30:16.352Z,8.60
2018-02-23T11:32:44.600Z,8.30
2018-02-23T11:35:12.070Z,8.20
2018-02-23T11:37:39.541Z,8.60
2018-02-23T11:40:07.784Z,8.60
2018-02-23T11:42:35.247Z,8.60
2018-02-23T11:45:04.219Z,7.90
2018-02-23T11:47:31.707Z,7.80
2018-02-23T11:49:59.177Z,8.60
2018-02-23T11:52:27.394Z,8.00
2018-02-23T11:54:54.918Z,8.00
2018-02-23T11:57:29.591Z,8.30
2018-02-23T11:59:57.073Z,8.30
2018-02-23T12:02:24.536Z,7.90
2018-02-23T12:04:51.977Z,8.10
2018-02-23T12:07:19.456Z,8.00
2018-02-23T12:09:47.677Z,8.10
2018-02-23T12:12:15.139Z,8.10
2018-02-23T12:14:42.612Z,7.30
2018-02-23T12:17:10.070Z,7.00
2018-02-23T12:19:37.545Z,7.70
2018-02-23T12:22:05.051Z,7.60
2018-02-23T12:24:32.508Z,7.80
2018-02-23T12:26:59.967Z,8.40
2018-02-23T12:29:27.437Z,7.30
2018-02-23T12:31:55.037Z,7.10
2018-02-23T12:34:23.310Z,7.00
2018-02-23T12:36:50.743Z,7.00
2018-02-23T12:39:18.216Z,7.50
2018-02-23T12:41:45.688Z,7.50
2018-02-23T12:44:13.914Z,6.70
2018-02-23T12:46:41.371Z,6.60
2018-02-23T12:49:08.874Z,7.00
2018-02-23T12:51:36.323Z,7.40
2018-02-23T12:54:03.803Z,7.20
2018-02-23T12:56:32.033Z,6.60
2018-02-23T12:58:59.502Z,6.60
2018-02-23T13:01:27.064Z,6.80
2018-02-23T13:03:54.544Z,7.00
2018-02-23T13:06:22.766Z,6.50
2018-02-23T13:08:50.238Z,6.50
2018-02-23T13:11:17.722Z,6.40
2018-02-23T13:13:45.959Z,6.60
2018-02-23T13:16:19.199Z,6.60
2018-02-23T13:18:47.418Z,6.70
2018-02-23T13:21:14.892Z,6.70
2018-02-23T13:23:42.400Z,7.20
2018-02-23T13:26:10.614Z,6.60
2018-02-23T13:28:46.703Z,6.50
2018-02-23T13:31:14.935Z,6.90
2018-02-23T13:33:42.409Z,6.90
2018-02-23T13:36:09.909Z,6.40
2018-02-23T13:38:38.124Z,6.20
2018-02-23T13:41:11.502Z,6.20
2018-02-23T13:43:38.964Z,5.70
2018-02-23T13:46:06.426Z,5.50
2018-02-23T13:48:33.918Z,5.70
2018-02-23T13:51:01.382Z,5.60
2018-02-23T13:53:35.407Z,6.00
2018-02-23T13:56:03.646Z,6.00
2018-02-23T13:58:31.106Z,6.00
2018-02-23T14:00:58.831Z,5.60
2018-02-23T14:03:26.322Z,5.40
2018-02-23T14:05:54.002Z,5.30
2018-02-23T14:08:25.131Z,5.20
2018-02-23T14:11:01.412Z,5.00
2018-02-23T14:13:28.931Z,4.70
2018-02-23T14:15:56.402Z,4.60
2018-02-23T14:18:23.859Z,4.50
2018-02-23T14:20:51.342Z,4.50
2018-02-23T14:23:19.577Z,4.10
2018-02-23T14:25:47.070Z,4.10
2018-02-23T14:28:14.538Z,3.90
2018-02-23T14:30:42.783Z,4.10
2018-02-23T14:33:10.258Z,4.10
2018-02-23T14:35:37.752Z,3.90
2018-02-23T14:38:05.321Z,3.90
2018-02-23T14:40:32.793Z,3.80
2018-02-23T14:43:00.266Z,3.90
2018-02-23T14:45:27.731Z,3.90
2018-02-23T14:47:55.204Z,3.90
2018-02-23T14:50:35.142Z,3.50
2018-02-23T14:53:02.604Z,3.50
2018-02-23T14:55:30.070Z,3.50
2018-02-23T14:57:58.321Z,3.40
2018-02-23T15:00:25.795Z,3.40
2018-02-23T15:02:53.274Z,3.30
2018-02-23T15:05:20.757Z,3.20
2018-02-23T15:07:48.219Z,3.30
2018-02-23T15:10:15.707Z,3.30
2018-02-23T15:12:43.190Z,3.30
2018-02-23T15:15:10.667Z,3.20
2018-02-23T15:17:38.206Z,3.20
2018-02-23T15:20:07.433Z,3.10
2018-02-23T15:22:34.895Z,3.10
2018-02-23T15:25:02.447Z,3.10
2018-02-23T15:27:29.917Z,3.10
2018-02-23T15:29:57.378Z,3.00
2018-02-23T15:32:40.684Z,2.90
2018-02-23T15:35:08.149Z,2.80
2018-02-23T15:37:35.613Z,2.80
2018-02-23T15:40:03.116Z,2.80
2018-02-23T15:42:31.361Z,2.70
2018-02-23T15:44:58.851Z,2.70
2018-02-23T15:47:27.108Z,2.70
2018-02-23T15:49:56.046Z,2.70
2018-02-23T15:52:23.546Z,2.70
2018-02-23T15:54:51.020Z,2.70
2018-02-23T15:57:20.231Z,2.60
2018-02-23T15:59:48.479Z,2.60
2018-02-23T16:02:15.955Z,2.50
2018-02-23T16:04:44.206Z,2.50
2018-02-23T16:07:11.683Z,2.40
2018-02-23T16:09:39.932Z,2.40
2018-02-23T16:12:07.398Z,2.40
2018-02-23T16:14:34.920Z,2.40
2018-02-23T16:17:02.374Z,2.30
2018-02-23T16:19:29.884Z,2.30
2018-02-23T16:21:57.366Z,2.20
2018-02-23T16:24:25.108Z,2.20
2018-02-23T16:26:52.582Z,2.10
2018-02-23T16:29:20.087Z,2.10
2018-02-23T16:31:47.625Z,2.00
2018-02-23T16:34:15.116Z,2.00
2018-02-23T16:36:43.340Z,1.90
2018-02-23T16:39:10.844Z,1.90
2018-02-23T16:41:38.304Z,1.90
2018-02-23T16:44:05.835Z,1.90
2018-02-23T16:46:34.270Z,1.80
2018-02-23T16:49:02.557Z,1.70
2018-02-23T16:51:29.983Z,1.60
2018-02-23T16:53:57.522Z,1.50
2018-02-23T16:56:24.971Z,1.50
2018-02-23T16:58:52.441Z,1.50
2018-02-23T17:01:19.928Z,1.50
2018-02-23T17:03:48.160Z,1.30
2018-02-23T17:06:18.350Z,1.30
2018-02-23T17:08:45.924Z,1.30
2018-02-23T17:11:13.456Z,1.30
2018-02-23T17:13:40.887Z,1.20
2018-02-23T17:16:09.126Z,1.20
2018-02-23T17:18:36.602Z,1.20
2018-02-23T17:21:04.062Z,1.20
2018-02-23T17:23:31.563Z,1.10
2018-02-23T17:25:59.023Z,1.10
2018-02-23T17:28:26.532Z,1.00
2018-02-23T17:30:53.998Z,1.00
2018-02-23T17:33:21.463Z,0.90
2018-02-23T17:35:49.780Z,0.80
2018-02-23T17:38:17.238Z,0.70
2018-02-23T17:40:44.714Z,0.80
2018-02-23T17:43:13.199Z,0.90
2018-02-23T17:45:40.655Z,0.90
2018-02-23T17:48:08.238Z,0.80
2018-02-23T17:50:35.731Z,0.80
2018-02-23T17:53:03.190Z,0.70
2018-02-23T17:55:30.720Z,0.60
2018-02-23T17:57:58.160Z,0.60
2018-02-23T18:00:25.622Z,0.60
2018-02-23T18:02:53.131Z,0.50
2018-02-23T18:05:20.868Z,0.50
2018-02-23T18:07:48.382Z,0.50
2018-02-23T18:10:15.878Z,0.50
2018-02-23T18:12:44.102Z,0.60
2018-02-23T18:15:11.572Z,0.50
2018-02-23T18:17:39.049Z,0.50
2018-02-23T18:20:06.511Z,0.50
2018-02-23T18:22:33.963Z,0.50
2018-02-23T18:25:02.215Z,0.40
2018-02-23T18:27:29.691Z,0.40
2018-02-23T18:29:57.175Z,0.40
2018-02-23T18:32:24.664Z,0.40
2018-02-23T18:34:52.139Z,0.40
2018-02-23T18:37:19.666Z,0.30
2018-02-23T18:39:47.150Z,0.40
2018-02-23T18:42:14.607Z,0.30
2018-02-23T18:44:42.080Z,0.40
2018-02-23T18:47:09.601Z,0.30
2018-02-23T18:49:37.062Z,0.20
2018-02-23T18:52:04.528Z,0.10
2018-02-23T18:54:32.187Z,0.10
2018-02-23T18:56:59.655Z,0.20
2018-02-23T18:59:32.800Z,0.10
2018-02-23T19:02:00.275Z,0.20
2018-02-23T19:04:27.826Z,0.20
2018-02-23T19:06:55.295Z,0.20
2018-02-23T19:09:22.943Z,0.10
2018-02-23T19:11:50.424Z,0.10
2018-02-23T19:14:18.109Z,0.10
2018-02-23T19:16:46.186Z,0.10
2018-02-23T19:19:13.765Z,0.10
2018-02-23T19:21:41.786Z,0.10
2018-02-23T19:24:09.255Z,0.00
2018-02-23T19:26:36.750Z,0.00
2018-02-23T19:29:04.986Z,-0.10
2018-02-23T19:31:32.447Z,-0.10
2018-02-23T19:33:59.972Z,-0.10
2018-02-23T19:36:27.449Z,-0.20
2018-02-23T19:38:54.918Z,-0.30
2018-02-23T19:41:22.407Z,-0.30
2018-02-23T19:43:50.653Z,-0.20
2018-02-23T19:46:18.147Z,-0.20
2018-02-23T19:48:45.636Z,-0.10
2018-02-23T19:51:13.122Z,-0.10
2018-02-23T19:53:40.577Z,-0.10
2018-02-23T19:56:08.071Z,-0.20
2018-02-23T19:58:36.335Z,-0.40
2018-02-23T20:01:04.571Z,-0.30
2018-02-23T20:03:32.078Z,-0.30
2018-02-23T20:06:00.323Z,-0.40
2018-02-23T20:08:27.791Z,-0.40
2018-02-23T20:10:55.291Z,-0.40
2018-02-23T20:13:22.768Z,-0.40
2018-02-23T20:15:50.228Z,-0.40
2018-02-23T20:18:18.886Z,-0.40
2018-02-23T20:20:47.226Z,-0.40
2018-02-23T20:23:15.571Z,-0.40
2018-02-23T20:25:43.077Z,-0.40
2018-02-23T20:28:11.315Z,-0.40
2018-02-23T20:30:38.788Z,-0.40
2018-02-23T20:33:06.287Z,-0.50
2018-02-23T20:35:33.755Z,-0.60
2018-02-23T20:38:01.223Z,-0.50
2018-02-23T20:40:28.714Z,-0.60
2018-02-23T20:42:56.953Z,-0.60
2018-02-23T20:45:24.437Z,-0.60
2018-02-23T20:47:51.913Z,-0.60
2018-02-23T20:50:20.134Z,-0.80
2018-02-23T20:52:47.615Z,-0.80
2018-02-23T20:55:15.134Z,-0.90
2018-02-23T20:57:42.620Z,-1.00
2018-02-23T21:00:10.099Z,-1.00
2018-02-23T21:02:37.576Z,-0.90
2018-02-23T21:05:05.815Z,-1.00
2018-02-23T21:07:33.294Z,-1.10
2018-02-23T21:10:00.793Z,-1.20
2018-02-23T21:12:28.271Z,-1.20
2018-02-23T21:14:55.780Z,-1.20
2018-02-23T21:17:24.023Z,-1.20
2018-02-23T21:19:53.010Z,-1.30
2018-02-23T21:22:20.503Z,-1.30
2018-02-23T21:24:48.741Z,-1.40
2018-02-23T21:27:16.194Z,-1.40
2018-02-23T21:29:43.701Z,-1.50
2018-02-23T21:32:11.171Z,-1.50
2018-02-23T21:34:38.657Z,-1.50
2018-02-23T21:37:06.138Z,-1.40
2018-02-23T21:39:33.612Z,-1.40
2018-02-23T21:42:01.082Z,-1.40
2018-02-23T21:44:41.198Z,-1.40
2018-02-23T21:47:08.693Z,-1.40
2018-02-23T21:49:36.997Z,-1.40
2018-02-23T21:52:04.462Z,-1.40
2018-02-23T21:54:31.967Z,-1.50
2018-02-23T21:56:59.525Z,-1.50
2018-02-23T21:59:27.763Z,-1.50
2018-02-23T22:01:55.300Z,-1.60
2018-02-23T22:04:22.779Z,-1.50
2018-02-23T22:06:52.245Z,-1.50
2018-02-23T22:09:19.742Z,-1.50
2018-02-23T22:11:47.485Z,-1.60
2018-02-23T22:14:14.953Z,-1.70
2018-02-23T22:16:42.418Z,-1.70
2018-02-23T22:19:09.917Z,-1.70
2018-02-23T22:21:38.166Z,-1.80
2018-02-23T22:24:05.621Z,-1.80
2018-02-23T22:26:34.660Z,-1.80
2018-02-23T22:29:03.723Z,-1.80
2018-02-23T22:31:31.324Z,-1.80
2018-02-23T22:33:58.881Z,-1.80
2018-02-23T22:36:26.343Z,-1.90
2018-02-23T22:38:54.102Z,-1.80
2018-02-23T22:41:21.589Z,-1.90
2018-02-23T22:43:49.074Z,-1.90
2018-02-23T22:46:16.630Z,-1.90
2018-02-23T22:48:44.111Z,-1.90
2018-02-23T22:51:11.612Z,-1.90
2018-02-23T22:53:39.076Z,-2.00
2018-02-23T22:56:06.658Z,-2.10
2018-02-23T22:58:34.132Z,-2.10
2018-02-23T23:01:02.379Z,-2.20
2018-02-23T23:03:29.880Z,-2.20
2018-02-23T23:05:57.347Z,-2.20
2018-02-23T23:08:24.799Z,-2.20
2018-02-23T23:10:52.291Z,-2.20
2018-02-23T23:13:19.754Z,-2.20
2018-02-23T23:15:47.224Z,-2.20
2018-02-23T23:18:14.715Z,-2.20
2018-02-23T23:20:42.166Z,-2.20
2018-02-23T23:23:10.399Z,-2.30
2018-02-23T23:25:37.875Z,-2.30
2018-02-23T23:28:05.376Z,-2.30
2018-02-23T23:30:32.837Z,-2.30
2018-02-23T23:33:00.306Z,-2.30
2018-02-23T23:35:27.847Z,-2.30
2018-02-23T23:37:55.311Z,-2.30
2018-02-23T23:40:22.795Z,-2.20
2018-02-23T23:42:50.254Z,-2.30
2018-02-23T23:45:17.798Z,-2.40
2018-02-23T23:47:45.278Z,-2.40
2018-02-23T23:50:12.743Z,-2.40
2018-02-23T23:52:40.254Z,-2.40
2018-02-23T23:55:07.710Z,-2.40
2018-02-23T23:57:35.208Z,-2.40
